Time;durP1;ratioP1;P1;durP2;ratioP2;P2;SDS_P1;SDS_P2;PMS_P1;PMS_P2;Temp;Humidity;BMP_temperature;BMP_pressure;BME280_temperature;BME280_humidity;BME280_pressure;Samples;Min_cycle;Max_cycle;Signal;HPM_P1;HPM_P2
2022/07/11 00:00:26;;;;;;;5.78;2.78;;;;;;;19.54;54.54;101284.66;4165379;28;20067;-62
2022/07/11 00:02:29;;;;;;;3.53;2.30;;;;;;;19.53;54.52;101282.91;4154615;28;20413;-62
2022/07/11 00:04:33;;;;;;;3.53;2.10;;;;;;;19.53;54.64;101287.31;4162640;28;20408;-62
2022/07/11 00:06:36;;;;;;;5.53;2.22;;;;;;;19.48;55.01;101284.72;4151247;28;20509;-62
2022/07/11 00:08:40;;;;;;;5.32;2.60;;;;;;;19.51;55.60;101284.69;4156694;28;20075;-62
2022/07/11 00:10:46;;;;;;;4.00;2.38;;;;;;;19.50;55.26;101279.44;4167829;28;20035;-62
2022/07/11 00:12:49;;;;;;;4.20;2.50;;;;;;;19.52;55.35;101272.34;4151372;28;20041;-62
2022/07/11 00:14:52;;;;;;;5.07;2.53;;;;;;;19.49;55.67;101278.56;4162106;28;20516;-62
2022/07/11 00:16:55;;;;;;;4.93;2.50;;;;;;;19.49;55.62;101270.66;4158419;28;20040;-62
2022/07/11 00:18:58;;;;;;;3.25;2.38;;;;;;;19.46;55.60;101270.66;4160282;28;20457;-62
2022/07/11 00:21:01;;;;;;;4.40;2.33;;;;;;;19.42;55.70;101266.31;4157188;28;20069;-62
2022/07/11 00:23:04;;;;;;;4.25;2.30;;;;;;;19.40;55.83;101267.22;4149692;28;20124;-62
2022/07/11 00:25:09;;;;;;;3.45;2.65;;;;;;;19.39;55.92;101268.09;4163339;28;20041;-62
2022/07/11 00:27:13;;;;;;;3.78;2.30;;;;;;;19.37;55.80;101273.38;4147600;28;20052;-62
2022/07/11 00:29:17;;;;;;;3.95;2.08;;;;;;;19.35;56.10;101264.63;4145208;28;20417;-62
2022/07/11 00:31:20;;;;;;;4.82;2.58;;;;;;;19.33;55.94;101269.03;4166880;28;20120;-62
2022/07/11 00:33:23;;;;;;;5.40;2.63;;;;;;;19.30;56.36;101266.41;4144187;28;20045;-62
2022/07/11 00:35:26;;;;;;;5.43;2.15;;;;;;;19.29;56.59;101264.66;4161731;28;20420;-62
2022/07/11 00:37:29;;;;;;;2.80;2.22;;;;;;;19.29;56.49;101262.03;4147088;28;20073;-62
2022/07/11 00:39:32;;;;;;;5.53;2.47;;;;;;;19.29;56.89;101262.03;4152785;28;20064;-62
2022/07/11 00:41:36;;;;;;;3.90;2.30;;;;;;;19.31;56.31;101255.00;4161738;28;20493;-62
2022/07/11 00:43:40;;;;;;;5.82;2.38;;;;;;;19.30;56.67;101258.50;4144086;28;20089;-62
2022/07/11 00:45:44;;;;;;;5.78;2.42;;;;;;;19.31;56.82;101255.00;4162872;28;20029;-62
2022/07/11 00:47:47;;;;;;;4.30;2.10;;;;;;;19.25;56.71;101255.06;4159171;28;20034;-62
2022/07/11 00:49:50;;;;;;;5.03;2.40;;;;;;;19.21;57.01;101253.34;4157215;28;20179;-62
2022/07/11 00:51:53;;;;;;;5.82;2.50;;;;;;;19.19;57.24;101251.56;4146770;28;20042;-62
2022/07/11 00:53:59;;;;;;;3.30;2.07;;;;;;;19.17;57.33;101258.63;4162341;28;20038;-62
2022/07/11 00:56:02;;;;;;;4.25;2.00;;;;;;;19.12;56.84;101249.00;4156798;28;20357;-62
2022/07/11 00:58:07;;;;;;;6.45;2.13;;;;;;;19.12;57.05;101254.28;4145048;28;20061;-62
2022/07/11 01:00:11;;;;;;;4.53;2.75;;;;;;;19.06;57.30;101255.22;4166933;28;20069;-62
2022/07/11 01:02:14;;;;;;;7.30;2.53;;;;;;;19.02;57.57;101254.34;4143867;28;20569;-62
2022/07/11 01:04:17;;;;;;;4.20;2.40;;;;;;;18.99;57.56;101250.88;4159029;28;20068;-62
2022/07/11 01:06:20;;;;;;;2.63;2.10;;;;;;;18.97;57.53;101244.75;4154220;28;20044;-62
2022/07/11 01:08:23;;;;;;;5.97;2.53;;;;;;;18.95;57.85;101252.66;4162975;28;20069;-62
2022/07/11 01:10:28;;;;;;;2.92;2.10;;;;;;;18.93;57.86;101243.88;4165547;28;20037;-62
2022/07/11 01:12:32;;;;;;;3.85;2.25;;;;;;;18.93;57.86;101248.28;4163071;28;20049;-62
2022/07/11 01:14:36;;;;;;;3.67;2.72;;;;;;;18.94;58.08;101244.75;4164127;28;20052;-62
2022/07/11 01:16:39;;;;;;;4.63;2.97;;;;;;;18.89;58.16;101251.84;4163479;28;20501;-62
2022/07/11 01:18:44;;;;;;;4.57;2.63;;;;;;;18.83;58.05;101250.94;4164910;28;20068;-62
2022/07/11 01:20:46;;;;;;;;;;;;;;;18.64;58.41;101237.03;4153995;28;20041;-63
2022/07/11 01:22:53;;;;;;;4.25;2.30;;;;;;;18.70;58.45;101249.28;4145464;28;20020;-62
2022/07/11 01:24:57;;;;;;;6.32;2.97;;;;;;;18.74;58.43;101243.13;4155645;28;20155;-62
2022/07/11 01:27:02;;;;;;;3.30;2.40;;;;;;;18.70;58.86;101235.25;4146102;28;20056;-63
2022/07/11 01:29:06;;;;;;;4.60;2.35;;;;;;;18.69;58.54;101238.75;4165612;28;20124;-62
2022/07/11 01:31:10;;;;;;;4.07;2.50;;;;;;;18.66;58.55;101239.66;4149064;28;20497;-62
2022/07/11 01:33:13;;;;;;;3.33;2.35;;;;;;;18.66;58.93;101237.00;4162228;28;20053;-62
2022/07/11 01:35:16;;;;;;;4.88;2.53;;;;;;;18.63;58.71;101235.31;4157409;28;20065;-62
2022/07/11 01:37:18;;;;;;;4.35;2.70;;;;;;;18.64;59.02;101230.91;4157480;28;20393;-62
2022/07/11 01:39:21;;;;;;;5.65;2.75;;;;;;;18.65;59.22;101230.88;4164613;28;20429;-62
2022/07/11 01:41:26;;;;;;;5.25;2.60;;;;;;;18.70;59.46;101232.63;4149415;28;20045;-62
2022/07/11 01:43:29;;;;;;;3.65;2.47;;;;;;;18.64;59.76;101228.25;4168091;28;20048;-62
2022/07/11 01:45:32;;;;;;;3.55;2.53;;;;;;;18.59;60.33;101236.19;4169714;28;20044;-62
2022/07/11 01:47:35;;;;;;;4.00;2.50;;;;;;;18.57;60.53;101230.06;4147065;28;20449;-62
2022/07/11 01:49:38;;;;;;;4.85;2.63;;;;;;;18.59;61.13;101225.66;4156449;28;20121;-62
2022/07/11 01:51:40;;;;;;;5.20;2.67;;;;;;;18.58;61.09;101230.94;4164369;28;20037;-62
2022/07/11 01:53:44;;;;;;;5.15;2.38;;;;;;;18.59;61.11;101227.44;4149305;28;20069;-62
2022/07/11 01:55:47;;;;;;;4.15;2.45;;;;;;;18.57;61.18;101224.78;4131356;28;20042;-62
2022/07/11 01:58:12;;;;;;;6.55;2.70;;;;;;;18.60;61.36;101229.16;4154150;28;20421;-62
2022/07/11 02:00:15;;;;;;;4.32;2.90;;;;;;;18.58;61.71;101229.19;4147497;28;20041;-62
2022/07/11 02:02:18;;;;;;;5.20;3.00;;;;;;;18.61;61.67;101234.41;4146957;28;20113;-62
2022/07/11 02:04:21;;;;;;;5.03;2.70;;;;;;;18.70;61.17;101232.63;4159169;28;20460;-62
2022/07/11 02:06:23;;;;;;;6.80;2.85;;;;;;;18.72;60.84;101233.47;4157962;28;20132;-61
2022/07/11 02:08:27;;;;;;;4.97;2.70;;;;;;;18.73;60.67;101228.19;4164402;28;20033;-62
2022/07/11 02:10:30;;;;;;;5.57;2.90;;;;;;;18.77;60.70;101222.03;4147385;28;20566;-62
2022/07/11 02:12:33;;;;;;;5.10;3.08;;;;;;;18.84;60.60;101218.44;4166465;28;20611;-62
2022/07/11 02:14:37;;;;;;;5.57;2.83;;;;;;;18.80;60.46;101216.72;4166108;28;20046;-62
2022/07/11 02:16:41;;;;;;;6.80;3.65;;;;;;;18.77;60.42;101222.03;4166273;28;20058;-62
2022/07/11 02:18:44;;;;;;;5.43;3.13;;;;;;;18.74;60.02;101214.13;4159837;28;20042;-62
2022/07/11 02:20:48;;;;;;;5.00;2.63;;;;;;;18.74;59.98;101211.50;4154286;28;20428;-62
2022/07/11 02:22:51;;;;;;;;;;;;;;;18.60;59.84;101221.25;4147024;28;20128;-62
2022/07/11 02:24:54;;;;;;;3.90;2.60;;;;;;;18.67;59.73;101217.69;4164007;28;19925;-62
2022/07/11 02:26:57;;;;;;;5.63;2.70;;;;;;;18.74;59.57;101221.19;4171177;28;20452;-62
2022/07/11 02:29:00;;;;;;;4.32;3.13;;;;;;;18.76;59.87;101214.13;4162511;28;20132;-62
2022/07/11 02:31:04;;;;;;;5.63;2.72;;;;;;;18.79;59.57;101209.72;4163744;28;20047;-62
2022/07/11 02:33:11;;;;;;;5.32;2.25;;;;;;;18.77;59.27;101211.47;4161877;28;20056;-63
2022/07/11 02:35:14;;;;;;;4.70;2.90;;;;;;;18.80;59.69;101213.22;4164624;28;20521;-62
2022/07/11 02:37:18;;;;;;;5.57;2.58;;;;;;;18.80;59.27;101215.84;4161553;28;20489;-62
2022/07/11 02:39:21;;;;;;;;;;;;;;;18.65;59.67;101220.34;4156113;28;20034;-62
2022/07/11 02:41:25;;;;;;;4.28;2.60;;;;;;;18.74;59.00;101210.66;4160448;28;19925;-61
2022/07/11 02:43:28;;;;;;;3.63;2.58;;;;;;;18.77;58.86;101219.38;4161500;28;20045;-61
2022/07/11 02:45:31;;;;;;;4.05;2.78;;;;;;;18.84;58.84;101217.59;4146953;28;20045;-62
2022/07/11 02:47:36;;;;;;;5.07;2.75;;;;;;;18.87;59.03;101216.72;4159239;28;20496;-61
2022/07/11 02:49:39;;;;;;;2.85;2.55;;;;;;;18.88;58.47;101208.81;4156145;28;20037;-62
2022/07/11 02:51:42;;;;;;;4.70;2.92;;;;;;;18.89;58.49;101212.31;4154848;28;20135;-62
2022/07/11 02:53:45;;;;;;;3.55;2.47;;;;;;;18.91;58.77;101213.16;4164421;28;20041;-62
2022/07/11 02:55:48;;;;;;;5.18;2.80;;;;;;;18.91;58.97;101213.16;4168909;28;20407;-62
2022/07/11 02:57:51;;;;;;;3.95;2.50;;;;;;;18.91;58.78;101214.06;4164114;28;20061;-62
2022/07/11 02:59:54;;;;;;;4.32;2.30;;;;;;;18.91;58.74;101207.88;4150909;28;20042;-62
2022/07/11 03:01:57;;;;;;;4.38;2.33;;;;;;;18.92;58.32;101207.88;4134279;28;20041;-62
2022/07/11 03:04:01;;;;;;;4.80;2.28;;;;;;;18.95;58.45;101213.16;4146675;28;20034;-62
2022/07/11 03:06:05;;;;;;;4.65;2.33;;;;;;;18.96;58.65;101212.25;4146092;28;20054;-62
2022/07/11 03:08:08;;;;;;;4.47;2.58;;;;;;;18.99;58.52;101213.97;4146542;28;20046;-62
2022/07/11 03:10:11;;;;;;;3.25;2.42;;;;;;;19.02;58.90;101208.69;4152409;28;20096;-62
2022/07/11 03:12:14;;;;;;;5.40;2.85;;;;;;;19.03;58.50;101205.16;4161436;28;20041;-62
2022/07/11 03:14:17;;;;;;;6.72;3.00;;;;;;;19.02;58.62;101212.19;4162788;28;20037;-62
2022/07/11 03:16:20;;;;;;;3.97;2.50;;;;;;;19.04;58.82;101208.66;4161924;28;20045;-62
2022/07/11 03:18:23;;;;;;;3.88;2.50;;;;;;;19.04;58.62;101204.28;4156058;28;20033;-62
2022/07/11 03:20:27;;;;;;;4.35;3.00;;;;;;;19.08;58.62;101205.13;4167958;28;20045;-63
2022/07/11 03:22:30;;;;;;;5.97;3.65;;;;;;;19.07;57.56;101203.34;4161563;28;20124;-63
2022/07/11 03:24:33;;;;;;;5.13;2.85;;;;;;;19.07;57.80;101214.78;4155879;28;20180;-62
2022/07/11 03:26:36;;;;;;;4.88;2.60;;;;;;;19.07;57.40;101206.00;4160714;28;20072;-62
2022/07/11 03:28:39;;;;;;;3.30;2.30;;;;;;;19.07;57.86;101206.88;4162978;28;20037;-62
2022/07/11 03:30:42;;;;;;;4.22;2.67;;;;;;;19.06;57.42;101197.22;4146061;28;20042;-62
2022/07/11 03:32:45;;;;;;;4.68;2.55;;;;;;;19.06;57.65;101207.78;4162055;28;20124;-62
2022/07/11 03:35:40;;;;;;;3.42;2.20;;;;;;;19.07;57.72;101204.25;4162640;28;20152;-62
2022/07/11 03:37:13;;;;;;;3.15;2.13;;;;;;;19.08;58.08;101207.75;4144936;28;20046;-63
2022/07/11 03:39:16;;;;;;;5.00;2.53;;;;;;;19.05;58.72;101207.78;4139128;28;20053;-63
2022/07/11 03:41:19;;;;;;;6.03;2.58;;;;;;;19.05;59.22;101211.28;4162960;28;20512;-63
2022/07/11 03:43:22;;;;;;;7.50;2.58;;;;;;;19.06;57.84;101209.53;4141435;28;20520;-63
2022/07/11 03:45:25;;;;;;;4.20;2.53;;;;;;;19.07;58.69;101209.53;4165216;28;20049;-63
2022/07/11 03:47:28;;;;;;;4.75;2.45;;;;;;;19.04;58.73;101201.66;4156910;28;20079;-63
2022/07/11 03:49:30;;;;;;;5.65;2.50;;;;;;;19.05;58.72;101206.00;4158794;28;20034;-64
2022/07/11 03:51:33;;;;;;;3.55;2.20;;;;;;;19.03;58.21;101213.06;4165225;28;20140;-63
2022/07/11 03:53:38;;;;;;;5.72;2.30;;;;;;;19.00;58.14;101211.34;4161455;28;20049;-64
2022/07/11 03:55:41;;;;;;;3.50;2.10;;;;;;;18.98;58.33;101214.84;4144773;28;20058;-63
2022/07/11 03:57:44;;;;;;;3.55;2.05;;;;;;;18.98;58.14;101214.84;4157685;28;20045;-63
2022/07/11 03:59:47;;;;;;;5.53;2.15;;;;;;;19.00;58.27;101215.75;4158726;28;20041;-63
2022/07/11 04:01:50;;;;;;;6.03;2.25;;;;;;;18.98;58.49;101214.84;4160453;28;20052;-63
2022/07/11 04:03:53;;;;;;;4.32;2.10;;;;;;;18.99;58.50;101209.56;4143161;28;20045;-63
2022/07/11 04:05:56;;;;;;;6.00;2.00;;;;;;;19.00;58.40;101208.69;4161871;28;20088;-63
2022/07/11 04:07:59;;;;;;;6.75;2.95;;;;;;;19.01;58.41;101206.91;4160631;28;20460;-63
2022/07/11 04:10:03;;;;;;;3.47;1.77;;;;;;;19.01;58.19;101205.19;4161852;28;20044;-63
2022/07/11 04:12:07;;;;;;;4.45;2.10;;;;;;;18.99;57.85;101201.66;4158557;28;20504;-64
2022/07/11 04:14:10;;;;;;;3.63;1.70;;;;;;;18.98;58.26;101206.94;4160550;28;20040;-63
2022/07/11 04:16:13;;;;;;;4.72;1.70;;;;;;;18.97;58.25;101205.22;4162089;28;20513;-63
2022/07/11 04:18:16;;;;;;;4.22;1.90;;;;;;;18.99;57.98;101206.06;4147283;28;20117;-63
2022/07/11 04:20:19;;;;;;;3.65;1.80;;;;;;;18.99;57.53;101206.94;4156828;28;20482;-63
2022/07/11 04:22:22;;;;;;;3.05;2.08;;;;;;;19.00;57.36;101215.75;4161674;28;20136;-63
2022/07/11 04:24:25;;;;;;;2.50;1.90;;;;;;;18.98;57.56;101209.59;4162120;28;20080;-63
2022/07/11 04:26:30;;;;;;;2.85;1.67;;;;;;;18.99;57.87;101206.06;4163513;28;20416;-62
2022/07/11 04:28:33;;;;;;;3.78;1.95;;;;;;;18.97;58.22;101203.44;4166820;28;20029;-62
2022/07/11 04:30:36;;;;;;;4.45;2.05;;;;;;;18.99;57.67;101196.41;4164575;28;20052;-62
2022/07/11 04:32:39;;;;;;;3.85;1.90;;;;;;;19.00;57.85;101206.06;4158795;28;20400;-62
2022/07/11 04:34:42;;;;;;;4.28;1.92;;;;;;;19.00;57.61;101202.56;4163336;28;20537;-63
2022/07/11 04:36:46;;;;;;;4.45;1.77;;;;;;;18.99;57.79;101211.34;4163397;28;20048;-62
2022/07/11 04:38:49;;;;;;;4.82;2.03;;;;;;;18.98;57.72;101204.31;4163313;28;20132;-62
2022/07/11 04:40:52;;;;;;;2.42;1.70;;;;;;;18.95;57.86;101202.59;4162294;28;20041;-62
2022/07/11 04:42:56;;;;;;;4.53;1.77;;;;;;;18.95;58.02;101201.72;4162555;28;20437;-62
2022/07/11 04:44:59;;;;;;;4.28;1.75;;;;;;;18.94;58.66;101205.22;4163214;28;20037;-63
2022/07/11 04:47:02;;;;;;;7.47;1.90;;;;;;;19.01;58.50;101204.28;4165040;28;20045;-62
2022/07/11 04:49:05;;;;;;;3.45;1.85;;;;;;;19.07;58.59;101200.72;4151327;28;20029;-63
2022/07/11 04:51:08;;;;;;;4.63;2.28;;;;;;;19.08;58.56;101200.72;4167112;28;20041;-62
2022/07/11 04:53:11;;;;;;;6.35;2.00;;;;;;;19.09;58.29;101202.47;4150517;28;20648;-62
2022/07/11 04:55:16;;;;;;;8.02;2.45;;;;;;;19.11;58.74;101207.72;4157972;28;20045;-62
2022/07/11 04:57:18;;;;;;;5.22;2.17;;;;;;;19.12;58.68;101207.72;4149918;28;20042;-62
2022/07/11 04:59:23;;;;;;;5.00;2.20;;;;;;;19.16;58.87;101212.06;4158309;28;20037;-62
2022/07/11 05:01:25;;;;;;;5.43;2.70;;;;;;;19.16;59.43;101204.16;4165172;28;20124;-62
2022/07/11 05:03:29;;;;;;;4.47;2.20;;;;;;;19.19;59.30;101219.94;4165340;28;20048;-62
2022/07/11 05:05:31;;;;;;;4.63;2.42;;;;;;;19.15;59.80;101220.84;4166221;28;20456;-62
2022/07/11 05:07:34;;;;;;;5.45;2.00;;;;;;;19.14;59.94;101215.59;4170941;28;20047;-62
2022/07/11 05:09:37;;;;;;;4.43;2.58;;;;;;;19.16;59.83;101219.97;4165014;28;20064;-62
2022/07/11 05:11:40;;;;;;;4.57;1.90;;;;;;;19.15;59.65;101214.72;4155030;28;20045;-62
2022/07/11 05:13:43;;;;;;;3.22;2.10;;;;;;;19.13;59.76;101220.00;4169949;28;20033;-62
2022/07/11 05:15:48;;;;;;;4.80;2.57;;;;;;;19.10;59.87;101208.59;4161605;28;20077;-63
2022/07/11 05:17:51;;;;;;;5.13;2.45;;;;;;;19.12;59.74;101218.25;4160292;28;20040;-63
2022/07/11 05:19:54;;;;;;;8.20;2.85;;;;;;;19.11;59.58;101221.75;4147478;28;20038;-63
2022/07/11 05:21:57;;;;;;;3.30;2.20;;;;;;;19.12;59.41;101214.75;4165359;28;20037;-63
2022/07/11 05:24:00;;;;;;;5.38;2.67;;;;;;;19.09;59.71;101220.06;4148067;28;20136;-63
2022/07/11 05:26:04;;;;;;;3.47;2.38;;;;;;;19.08;59.72;101216.53;4162350;28;20143;-63
2022/07/11 05:28:07;;;;;;;6.38;2.38;;;;;;;19.09;59.52;101222.69;4160592;28;20524;-63
2022/07/11 05:30:10;;;;;;;5.90;2.15;;;;;;;19.10;59.73;101222.69;4170578;28;20037;-63
2022/07/11 05:32:15;;;;;;;7.15;3.03;;;;;;;19.07;60.10;101222.69;4164278;28;20119;-63
2022/07/11 05:34:18;;;;;;;3.00;2.35;;;;;;;19.08;60.16;101227.06;4157800;28;20076;-63
2022/07/11 05:36:21;;;;;;;4.68;3.10;;;;;;;19.10;59.99;101220.03;4165668;28;20128;-63
2022/07/11 05:38:23;;;;;;;4.40;2.20;;;;;;;19.13;59.54;101235.81;4148041;28;20046;-63
2022/07/11 05:40:26;;;;;;;7.07;2.85;;;;;;;19.17;59.58;101231.38;4127660;28;20073;-63
2022/07/11 05:42:29;;;;;;;3.80;2.50;;;;;;;19.19;59.40;101233.13;4162692;28;20049;-63
2022/07/11 05:44:32;;;;;;;4.32;2.38;;;;;;;19.23;59.21;101230.47;4158247;28;20083;-63
2022/07/11 05:46:39;;;;;;;6.47;2.63;;;;;;;19.27;58.34;101233.03;4160939;28;20048;-63
2022/07/11 05:48:44;;;;;;;4.22;2.78;;;;;;;19.19;58.61;101229.63;4159556;28;20037;-63
2022/07/11 05:50:47;;;;;;;3.40;2.65;;;;;;;19.24;58.61;101240.13;4160939;28;20409;-63
2022/07/11 05:52:50;;;;;;;2.88;2.08;;;;;;;19.29;58.34;101235.66;4147080;28;20516;-63
2022/07/11 05:54:53;;;;;;;4.43;2.38;;;;;;;19.31;57.94;101234.75;4166255;28;20540;-62
2022/07/11 05:56:55;;;;;;;7.22;2.90;;;;;;;19.39;58.11;101232.09;4160880;28;20144;-63
2022/07/11 05:58:59;;;;;;;8.25;2.80;;;;;;;19.40;57.91;101233.81;4161915;28;20061;-63
2022/07/11 06:01:02;;;;;;;4.13;2.67;;;;;;;19.49;57.88;101238.13;4141936;28;20033;-63
2022/07/11 06:03:05;;;;;;;8.65;2.70;;;;;;;19.51;57.97;101237.22;4158729;28;20400;-63
2022/07/11 06:05:11;;;;;;;5.47;2.88;;;;;;;19.63;57.88;101240.63;4156917;28;20108;-62
2022/07/11 06:08:40;;;;;;;9.23;2.70;;;;;;;19.52;57.74;101243.34;4164035;28;20057;-63
2022/07/11 06:09:36;;;;;;;4.00;2.45;;;;;;;19.40;57.74;101239.06;4146210;28;20086;-63
2022/07/11 06:11:39;;;;;;;5.65;2.35;;;;;;;19.40;58.05;101244.34;4163442;28;20040;-63
2022/07/11 06:13:44;;;;;;;7.78;3.17;;;;;;;19.38;58.03;101240.88;4154614;28;20060;-63
2022/07/11 06:15:48;;;;;;;4.72;2.47;;;;;;;19.41;57.78;101245.25;4164080;28;20041;-63
2022/07/11 06:17:51;;;;;;;4.78;2.40;;;;;;;19.48;57.48;101249.56;4163601;28;20047;-63
2022/07/11 06:19:54;;;;;;;9.07;2.63;;;;;;;19.38;57.83;101242.59;4158631;28;20065;-63
2022/07/11 06:21:58;;;;;;;7.22;2.70;;;;;;;19.40;57.73;101244.34;4153404;28;20128;-63
2022/07/11 06:24:01;;;;;;;3.65;2.08;;;;;;;19.43;58.27;101244.31;4163859;28;20442;-63
2022/07/11 06:26:05;;;;;;;6.43;2.80;;;;;;;19.49;58.18;101241.66;4130997;28;20417;-63
2022/07/11 06:28:07;;;;;;;6.03;2.40;;;;;;;19.58;58.30;101245.06;4151051;28;20124;-63
2022/07/11 06:30:11;;;;;;;7.50;2.97;;;;;;;19.69;58.04;101238.78;4163721;28;20132;-63
2022/07/11 06:32:14;;;;;;;4.00;2.30;;;;;;;19.79;57.78;101236.94;4153923;28;20048;-64
2022/07/11 06:34:17;;;;;;;5.00;2.72;;;;;;;19.91;57.49;101235.91;4173442;28;20299;-64
2022/07/11 06:36:22;;;;;;;4.85;2.20;;;;;;;19.91;58.00;101238.56;4159918;28;20047;-64
2022/07/11 06:38:28;;;;;;;4.18;2.47;;;;;;;20.01;57.65;101241.97;4151219;28;20044;-64
2022/07/11 06:40:31;;;;;;;7.80;2.72;;;;;;;20.09;57.34;101240.09;4161799;28;20037;-64
2022/07/11 06:42:34;;;;;;;4.63;2.35;;;;;;;20.09;57.23;101245.38;4150799;28;20130;-64
2022/07/11 06:44:37;;;;;;;4.23;3.10;;;;;;;20.11;57.33;101235.69;4156910;28;20127;-64
2022/07/11 06:46:40;;;;;;;6.97;2.83;;;;;;;20.08;56.60;101237.47;4149600;28;20557;-64
2022/07/11 06:48:43;;;;;;;3.97;2.15;;;;;;;20.06;57.10;101240.13;4162335;28;20087;-64
2022/07/11 06:50:46;;;;;;;4.18;2.00;;;;;;;20.12;57.01;101242.72;4164199;28;20041;-64
2022/07/11 06:52:49;;;;;;;3.72;2.60;;;;;;;20.21;56.39;101239.94;4129649;28;20596;-64
2022/07/11 06:54:54;;;;;;;7.75;3.00;;;;;;;20.33;56.22;101236.25;4163638;28;20041;-63
2022/07/11 06:56:57;;;;;;;4.30;2.30;;;;;;;20.36;55.96;101238.84;4158535;28;20406;-64
2022/07/11 06:58:59;;;;;;;6.97;2.53;;;;;;;20.42;55.38;101237.91;4153959;28;20037;-62
2022/07/11 07:01:04;;;;;;;4.15;2.22;;;;;;;20.47;55.36;101230.78;4159578;28;20474;-64
2022/07/11 07:03:08;;;;;;;6.57;3.00;;;;;;;20.49;55.32;101229.00;4146815;28;20069;-62
2022/07/11 07:05:22;;;;;;;6.83;2.60;;;;;;;20.43;54.93;101229.09;4162271;28;20055;-64
2022/07/11 07:07:25;;;;;;;6.60;2.30;;;;;;;20.50;55.55;101229.84;4156608;28;20302;-64
2022/07/11 07:09:28;;;;;;;6.78;2.70;;;;;;;20.51;55.58;101231.59;4155991;28;20506;-62
2022/07/11 07:11:32;;;;;;;2.80;1.92;;;;;;;20.56;55.24;101233.28;4159541;28;20041;-62
2022/07/11 07:13:35;;;;;;;;;;;;;;;20.60;55.24;101227.97;4136389;28;20038;-63
2022/07/11 07:15:38;;;;;;;5.28;2.80;;;;;;;20.63;55.73;101228.75;4164699;28;19975;-63
2022/07/11 07:17:41;;;;;;;4.57;2.50;;;;;;;20.65;55.72;101236.69;4140947;28;20084;-63
2022/07/11 07:19:45;;;;;;;5.30;2.40;;;;;;;20.61;55.50;101227.06;4163869;28;20044;-63
2022/07/11 07:21:48;;;;;;;4.78;2.30;;;;;;;20.65;55.12;101229.63;4150796;28;20097;-63
2022/07/11 07:23:51;;;;;;;4.05;2.20;;;;;;;20.70;55.02;101237.53;4162781;28;20048;-63
2022/07/11 07:25:54;;;;;;;6.68;2.42;;;;;;;20.68;55.08;101229.63;4145601;28;20137;-62
2022/07/11 07:27:58;;;;;;;5.03;2.47;;;;;;;20.63;55.45;101231.41;4129436;28;20579;-63
2022/07/11 07:30:02;;;;;;;4.88;2.35;;;;;;;20.72;55.35;101230.44;4165628;28;20505;-63
2022/07/11 07:32:05;;;;;;;4.70;2.17;;;;;;;20.73;55.65;101238.38;4143476;28;20555;-63
2022/07/11 07:34:09;;;;;;;8.45;2.50;;;;;;;20.78;55.44;101229.47;4162633;28;20041;-63
2022/07/11 07:36:12;;;;;;;6.45;2.58;;;;;;;20.81;54.98;101235.59;4158419;28;20132;-62
2022/07/11 07:38:15;;;;;;;7.30;3.10;;;;;;;20.87;54.52;101230.19;4145330;28;20042;-63
2022/07/11 07:40:17;;;;;;;9.80;2.92;;;;;;;20.82;53.97;101231.16;4163773;28;20069;-63
2022/07/11 07:42:21;;;;;;;4.85;2.20;;;;;;;20.89;54.49;101236.31;4144549;28;20136;-63
2022/07/11 07:44:25;;;;;;;5.05;2.50;;;;;;;20.96;54.04;101231.81;4156620;28;20636;-63
2022/07/11 07:46:28;;;;;;;4.25;2.22;;;;;;;21.00;54.07;101235.31;4166721;28;20434;-63
2022/07/11 07:48:31;;;;;;;7.15;2.47;;;;;;;21.10;54.51;101232.47;4161566;28;20111;-63
2022/07/11 07:50:36;;;;;;;8.13;3.22;;;;;;;21.25;53.79;101236.59;4147312;28;20236;-63
2022/07/11 07:52:38;;;;;;;8.35;2.75;;;;;;;21.09;53.94;101235.13;4159215;28;20039;-62
2022/07/11 07:54:42;;;;;;;7.43;2.93;;;;;;;21.06;53.75;101233.41;4146113;28;20124;-62
2022/07/11 07:56:45;;;;;;;8.38;2.95;;;;;;;21.07;53.10;101231.63;4152524;28;20048;-62
2022/07/11 07:58:48;;;;;;;8.55;2.67;;;;;;;21.07;53.45;101232.53;4145921;28;20030;-62
2022/07/11 08:03:13;;;;;;;4.28;2.38;;;;;;;21.03;53.82;101227.31;4160221;28;20037;-62
2022/07/11 08:05:16;;;;;;;5.47;2.25;;;;;;;21.06;53.49;101228.13;4129826;28;20049;-62
2022/07/11 08:07:19;;;;;;;7.72;2.90;;;;;;;21.17;53.46;101227.06;4162263;28;20505;-63
2022/07/11 08:09:22;;;;;;;8.57;3.20;;;;;;;21.21;52.25;101224.31;4160624;28;20572;-63
2022/07/11 08:11:25;;;;;;;6.57;2.95;;;;;;;21.24;51.84;101224.28;4162226;28;20033;-63
2022/07/11 08:13:33;;;;;;;5.07;2.17;;;;;;;21.16;52.52;101220.03;4162089;28;20553;-63
2022/07/11 08:15:36;;;;;;;6.40;2.72;;;;;;;21.13;52.26;101223.63;4162833;28;20128;-64
2022/07/11 08:17:41;;;;;;;8.68;2.53;;;;;;;21.16;52.14;101220.91;4151913;28;20038;-64
2022/07/11 08:19:45;;;;;;;6.35;1.92;;;;;;;21.09;52.62;101224.56;4163151;28;20057;-64
2022/07/11 08:21:48;;;;;;;9.77;2.40;;;;;;;21.06;52.75;101227.25;4157858;28;20029;-64
2022/07/11 08:23:51;;;;;;;5.95;2.75;;;;;;;21.13;52.57;101226.25;4170430;28;20059;-64
2022/07/11 08:25:54;;;;;;;8.20;3.65;;;;;;;21.12;52.84;101223.63;4161911;28;20057;-64
2022/07/11 08:27:57;;;;;;;6.90;3.42;;;;;;;21.20;52.37;101233.19;4160967;28;20042;-64
2022/07/11 08:30:03;;;;;;;7.60;3.15;;;;;;;21.19;52.15;101231.44;4147805;28;20065;-63
2022/07/11 08:32:06;;;;;;;8.48;2.70;;;;;;;21.12;52.48;101229.78;4165719;28;20068;-63
2022/07/11 08:34:10;;;;;;;4.50;2.83;;;;;;;21.10;52.18;101224.53;4145637;28;20046;-64
2022/07/11 08:36:18;;;;;;;8.38;2.80;;;;;;;21.15;52.26;101232.38;4158153;28;20052;-64
2022/07/11 08:38:21;;;;;;;8.50;2.63;;;;;;;21.10;52.49;101228.97;4166843;28;20041;-63
2022/07/11 08:40:24;;;;;;;5.80;2.50;;;;;;;21.08;52.71;101225.44;4146147;28;20052;-63
2022/07/11 08:42:29;;;;;;;8.00;2.10;;;;;;;21.09;52.65;101224.56;4168115;28;20052;-63
2022/07/11 08:44:33;;;;;;;5.65;1.88;;;;;;;21.09;52.94;101221.91;4163206;28;20103;-63
2022/07/11 08:46:37;;;;;;;4.82;2.10;;;;;;;21.16;52.27;101225.31;4148101;28;20593;-63
2022/07/11 08:48:40;;;;;;;4.85;2.15;;;;;;;21.13;52.93;101226.25;4170474;28;20543;-63
2022/07/11 08:50:45;;;;;;;6.40;2.03;;;;;;;21.14;52.88;101222.69;4163096;28;20124;-62
2022/07/11 08:52:48;;;;;;;4.68;1.65;;;;;;;21.21;52.88;101219.03;4147873;28;20064;-63
2022/07/11 08:54:52;;;;;;;7.32;2.17;;;;;;;21.28;53.02;101217.16;4172936;28;20045;-62
2022/07/11 08:56:56;;;;;;;7.30;2.42;;;;;;;21.40;53.36;101219.56;4155300;28;20049;-63
2022/07/11 08:59:00;;;;;;;6.22;2.47;;;;;;;21.53;51.99;101222.03;4155222;28;20530;-62
2022/07/11 09:01:03;;;;;;;7.63;2.17;;;;;;;21.54;51.89;101226.44;4165004;28;20552;-63
2022/07/11 09:03:07;;;;;;;5.13;2.33;;;;;;;;;;4148008;28;20440;-62
2022/07/11 09:05:10;;;;;;;6.60;2.80;;;;;;;21.53;51.44;101225.53;4154023;28;20038;-63
2022/07/11 09:07:15;;;;;;;5.80;2.28;;;;;;;21.45;51.63;101222.16;4165632;28;20065;-63
2022/07/11 09:09:18;;;;;;;5.97;2.17;;;;;;;21.38;52.07;101221.38;4172502;28;20045;-63
2022/07/11 09:11:21;;;;;;;3.97;2.40;;;;;;;21.30;52.47;101222.44;4157878;28;20489;-63
2022/07/11 09:13:28;;;;;;;2.97;1.58;;;;;;;21.36;52.27;101232.88;4156292;28;20073;-63
2022/07/11 09:15:36;;;;;;;6.25;1.70;;;;;;;21.31;52.27;101221.53;4155776;28;20042;-65
2022/07/11 09:17:39;;;;;;;6.72;1.65;;;;;;;21.48;51.92;101222.09;4160186;28;20747;-63
2022/07/11 09:19:42;;;;;;;4.13;1.92;;;;;;;21.67;50.78;101220.00;4150399;28;20041;-63
2022/07/11 09:26:53;;;;;;;6.13;2.20;;;;;;;22.08;50.33;101205.03;4147797;28;20060;-63
2022/07/11 09:29:00;;;;;;;6.50;2.65;;;;;;;22.02;50.19;101207.81;4155130;28;20042;-63
2022/07/11 09:31:16;;;;;;;5.45;2.10;;;;;;;21.91;50.60;101210.66;4163911;28;20056;-63
2022/07/11 09:33:19;;;;;;;8.65;1.70;;;;;;;21.93;50.33;101211.53;4155358;28;20148;-63
2022/07/11 09:35:23;;;;;;;5.50;1.58;;;;;;;22.00;50.19;101212.25;4166074;28;20379;-63
2022/07/11 09:37:43;;;;;;;4.40;2.73;;;;;;;22.34;49.77;101213.31;4147491;28;20034;-63
2022/07/11 09:39:48;;;;;;;3.20;1.55;;;;;;;22.22;49.24;101210.00;4131467;28;20112;-64
2022/07/11 09:41:53;;;;;;;5.40;1.65;;;;;;;22.19;49.94;101210.06;4159988;28;20041;-63
2022/07/11 09:44:07;;;;;;;3.95;1.80;;;;;;;22.23;50.03;101211.75;4165447;28;20137;-63